sensor_id;sensor_type;location;lat;lon;timestamp;P1;durP1;ratioP1;P2;durP2;ratioP2
19414;SDS011;9843;48.882;12.592;2023-08-31T00:00:40;10.07;;;9.17;;
19414;SDS011;9843;48.882;12.592;2023-08-31T00:03:07;12.40;;;11.13;;
19414;SDS011;9843;48.882;12.592;2023-08-31T00:05:36;10.47;;;9.57;;
19414;SDS011;9843;48.882;12.592;2023-08-31T00:08:06;11.17;;;9.53;;
19414;SDS011;9843;48.882;12.592;2023-08-31T00:10:34;10.07;;;8.83;;
19414;SDS011;9843;48.882;12.592;2023-08-31T00:13:01;10.33;;;9.33;;
19414;SDS011;9843;48.882;12.592;2023-08-31T00:15:28;9.43;;;8.60;;
19414;SDS011;9843;48.882;12.592;2023-08-31T00:17:57;10.27;;;9.27;;
19414;SDS011;9843;48.882;12.592;2023-08-31T00:20:24;12.37;;;9.50;;
19414;SDS011;9843;48.882;12.592;2023-08-31T00:22:52;10.23;;;8.87;;
19414;SDS011;9843;48.882;12.592;2023-08-31T00:25:20;9.33;;;8.53;;
19414;SDS011;9843;48.882;12.592;2023-08-31T00:27:47;10.77;;;9.40;;
19414;SDS011;9843;48.882;12.592;2023-08-31T00:30:14;9.97;;;8.50;;
19414;SDS011;9843;48.882;12.592;2023-08-31T00:32:41;9.27;;;8.47;;
19414;SDS011;9843;48.882;12.592;2023-08-31T00:35:09;10.30;;;9.43;;
19414;SDS011;9843;48.882;12.592;2023-08-31T00:37:36;9.17;;;8.27;;
19414;SDS011;9843;48.882;12.592;2023-08-31T00:40:03;8.97;;;8.03;;
19414;SDS011;9843;48.882;12.592;2023-08-31T00:42:33;8.47;;;7.77;;
19414;SDS011;9843;48.882;12.592;2023-08-31T00:45:00;10.40;;;9.47;;
19414;SDS011;9843;48.882;12.592;2023-08-31T00:47:27;10.13;;;9.23;;
19414;SDS011;9843;48.882;12.592;2023-08-31T00:49:54;10.87;;;9.87;;
19414;SDS011;9843;48.882;12.592;2023-08-31T00:52:21;9.67;;;8.83;;
19414;SDS011;9843;48.882;12.592;2023-08-31T00:54:49;8.53;;;7.83;;
19414;SDS011;9843;48.882;12.592;2023-08-31T00:57:18;10.13;;;9.10;;
19414;SDS011;9843;48.882;12.592;2023-08-31T00:59:46;11.53;;;9.93;;
19414;SDS011;9843;48.882;12.592;2023-08-31T01:02:15;9.40;;;8.60;;
19414;SDS011;9843;48.882;12.592;2023-08-31T01:04:47;9.53;;;8.73;;
19414;SDS011;9843;48.882;12.592;2023-08-31T01:07:18;8.20;;;7.40;;
19414;SDS011;9843;48.882;12.592;2023-08-31T01:09:50;12.87;;;9.87;;
19414;SDS011;9843;48.882;12.592;2023-08-31T01:12:21;11.90;;;9.90;;
19414;SDS011;9843;48.882;12.592;2023-08-31T01:14:56;11.63;;;10.63;;
19414;SDS011;9843;48.882;12.592;2023-08-31T01:17:24;10.43;;;9.43;;
19414;SDS011;9843;48.882;12.592;2023-08-31T01:19:54;10.90;;;9.93;;
19414;SDS011;9843;48.882;12.592;2023-08-31T01:22:25;11.53;;;10.53;;
19414;SDS011;9843;48.882;12.592;2023-08-31T01:24:55;11.20;;;10.13;;
19414;SDS011;9843;48.882;12.592;2023-08-31T01:27:23;10.00;;;8.87;;
19414;SDS011;9843;48.882;12.592;2023-08-31T01:29:50;11.73;;;10.53;;
19414;SDS011;9843;48.882;12.592;2023-08-31T01:32:19;9.73;;;8.83;;
19414;SDS011;9843;48.882;12.592;2023-08-31T01:34:46;12.57;;;11.17;;
19414;SDS011;9843;48.882;12.592;2023-08-31T01:37:14;12.33;;;11.13;;
19414;SDS011;9843;48.882;12.592;2023-08-31T01:39:46;11.77;;;10.67;;
19414;SDS011;9843;48.882;12.592;2023-08-31T01:42:15;19.07;;;12.07;;
19414;SDS011;9843;48.882;12.592;2023-08-31T01:44:43;11.07;;;10.07;;
19414;SDS011;9843;48.882;12.592;2023-08-31T01:47:13;14.27;;;12.93;;
19414;SDS011;9843;48.882;12.592;2023-08-31T01:49:51;12.97;;;11.57;;
19414;SDS011;9843;48.882;12.592;2023-08-31T01:52:18;12.20;;;10.97;;
19414;SDS011;9843;48.882;12.592;2023-08-31T01:54:45;11.63;;;10.53;;
19414;SDS011;9843;48.882;12.592;2023-08-31T01:57:12;11.47;;;10.27;;
19414;SDS011;9843;48.882;12.592;2023-08-31T01:59:40;11.13;;;10.07;;
19414;SDS011;9843;48.882;12.592;2023-08-31T02:02:07;12.37;;;10.10;;
19414;SDS011;9843;48.882;12.592;2023-08-31T02:04:35;11.10;;;10.20;;
19414;SDS011;9843;48.882;12.592;2023-08-31T02:07:02;11.40;;;10.37;;
19414;SDS011;9843;48.882;12.592;2023-08-31T02:09:29;11.77;;;10.67;;
19414;SDS011;9843;48.882;12.592;2023-08-31T02:11:56;11.30;;;10.30;;
19414;SDS011;9843;48.882;12.592;2023-08-31T02:14:23;10.27;;;9.20;;
19414;SDS011;9843;48.882;12.592;2023-08-31T02:16:52;11.13;;;10.07;;
19414;SDS011;9843;48.882;12.592;2023-08-31T02:19:19;12.27;;;9.73;;
19414;SDS011;9843;48.882;12.592;2023-08-31T02:21:46;10.73;;;9.73;;
19414;SDS011;9843;48.882;12.592;2023-08-31T02:24:13;12.60;;;9.13;;
19414;SDS011;9843;48.882;12.592;2023-08-31T02:26:40;9.93;;;8.93;;
19414;SDS011;9843;48.882;12.592;2023-08-31T02:29:07;9.53;;;8.63;;
19414;SDS011;9843;48.882;12.592;2023-08-31T02:31:34;9.57;;;8.30;;
19414;SDS011;9843;48.882;12.592;2023-08-31T02:34:03;10.47;;;9.47;;
19414;SDS011;9843;48.882;12.592;2023-08-31T02:36:30;9.93;;;8.93;;
19414;SDS011;9843;48.882;12.592;2023-08-31T02:38:58;8.93;;;8.17;;
19414;SDS011;9843;48.882;12.592;2023-08-31T02:41:25;9.03;;;8.23;;
19414;SDS011;9843;48.882;12.592;2023-08-31T02:43:52;8.50;;;7.80;;
19414;SDS011;9843;48.882;12.592;2023-08-31T02:46:19;8.00;;;7.30;;
19414;SDS011;9843;48.882;12.592;2023-08-31T02:48:46;9.53;;;8.30;;
19414;SDS011;9843;48.882;12.592;2023-08-31T02:51:15;8.07;;;7.37;;
19414;SDS011;9843;48.882;12.592;2023-08-31T02:53:42;8.70;;;7.80;;
19414;SDS011;9843;48.882;12.592;2023-08-31T02:56:09;8.20;;;6.80;;
19414;SDS011;9843;48.882;12.592;2023-08-31T02:58:36;7.73;;;7.03;;
19414;SDS011;9843;48.882;12.592;2023-08-31T03:01:07;5.50;;;5.00;;
19414;SDS011;9843;48.882;12.592;2023-08-31T03:03:36;8.00;;;7.20;;
19414;SDS011;9843;48.882;12.592;2023-08-31T03:06:03;6.90;;;6.30;;
19414;SDS011;9843;48.882;12.592;2023-08-31T03:08:31;12.90;;;8.07;;
19414;SDS011;9843;48.882;12.592;2023-08-31T03:10:58;7.20;;;6.57;;
19414;SDS011;9843;48.882;12.592;2023-08-31T03:13:25;7.33;;;6.73;;
19414;SDS011;9843;48.882;12.592;2023-08-31T03:15:52;7.57;;;6.10;;
19414;SDS011;9843;48.882;12.592;2023-08-31T03:18:21;6.83;;;6.23;;
19414;SDS011;9843;48.882;12.592;2023-08-31T03:20:48;7.83;;;7.23;;
19414;SDS011;9843;48.882;12.592;2023-08-31T03:23:15;11.47;;;8.30;;
19414;SDS011;9843;48.882;12.592;2023-08-31T03:25:44;8.03;;;7.30;;
19414;SDS011;9843;48.882;12.592;2023-08-31T03:28:11;10.83;;;7.63;;
19414;SDS011;9843;48.882;12.592;2023-08-31T03:30:38;8.17;;;7.47;;
19414;SDS011;9843;48.882;12.592;2023-08-31T03:33:05;11.20;;;7.97;;
19414;SDS011;9843;48.882;12.592;2023-08-31T03:35:32;8.53;;;7.67;;
19414;SDS011;9843;48.882;12.592;2023-08-31T03:37:59;8.30;;;7.50;;
19414;SDS011;9843;48.882;12.592;2023-08-31T03:40:26;7.30;;;6.70;;
19414;SDS011;9843;48.882;12.592;2023-08-31T03:42:55;8.03;;;7.23;;
19414;SDS011;9843;48.882;12.592;2023-08-31T03:45:22;8.30;;;7.63;;
19414;SDS011;9843;48.882;12.592;2023-08-31T03:47:49;9.87;;;9.07;;
19414;SDS011;9843;48.882;12.592;2023-08-31T03:50:16;9.83;;;8.77;;
19414;SDS011;9843;48.882;12.592;2023-08-31T03:52:43;9.00;;;8.30;;
19414;SDS011;9843;48.882;12.592;2023-08-31T03:55:10;8.37;;;7.57;;
19414;SDS011;9843;48.882;12.592;2023-08-31T03:57:37;9.67;;;8.07;;
19414;SDS011;9843;48.882;12.592;2023-08-31T04:00:07;8.23;;;7.57;;
19414;SDS011;9843;48.882;12.592;2023-08-31T04:02:37;9.17;;;8.33;;
19414;SDS011;9843;48.882;12.592;2023-08-31T04:05:04;8.43;;;7.73;;
19414;SDS011;9843;48.882;12.592;2023-08-31T04:07:34;7.87;;;7.20;;
19414;SDS011;9843;48.882;12.592;2023-08-31T04:10:01;8.30;;;7.60;;
19414;SDS011;9843;48.882;12.592;2023-08-31T04:12:28;9.53;;;8.73;;
19414;SDS011;9843;48.882;12.592;2023-08-31T04:14:55;9.33;;;8.43;;
19414;SDS011;9843;48.882;12.592;2023-08-31T04:17:24;13.10;;;11.70;;
19414;SDS011;9843;48.882;12.592;2023-08-31T04:19:51;16.07;;;12.63;;
19414;SDS011;9843;48.882;12.592;2023-08-31T04:22:18;10.03;;;9.13;;
19414;SDS011;9843;48.882;12.592;2023-08-31T04:24:45;9.00;;;8.07;;
19414;SDS011;9843;48.882;12.592;2023-08-31T04:27:12;9.40;;;8.50;;
19414;SDS011;9843;48.882;12.592;2023-08-31T04:29:39;9.47;;;8.33;;
19414;SDS011;9843;48.882;12.592;2023-08-31T04:32:06;8.77;;;8.07;;
19414;SDS011;9843;48.882;12.592;2023-08-31T04:34:35;8.13;;;7.37;;
19414;SDS011;9843;48.882;12.592;2023-08-31T04:37:02;8.47;;;7.67;;
19414;SDS011;9843;48.882;12.592;2023-08-31T04:39:29;9.13;;;8.07;;
19414;SDS011;9843;48.882;12.592;2023-08-31T04:41:56;8.30;;;7.53;;
19414;SDS011;9843;48.882;12.592;2023-08-31T04:44:23;9.77;;;8.97;;
19414;SDS011;9843;48.882;12.592;2023-08-31T04:46:50;9.30;;;8.33;;
19414;SDS011;9843;48.882;12.592;2023-08-31T04:49:17;9.30;;;8.40;;
19414;SDS011;9843;48.882;12.592;2023-08-31T04:51:46;10.27;;;8.37;;
19414;SDS011;9843;48.882;12.592;2023-08-31T04:54:13;9.30;;;8.40;;
19414;SDS011;9843;48.882;12.592;2023-08-31T04:56:40;8.87;;;8.07;;
19414;SDS011;9843;48.882;12.592;2023-08-31T04:59:07;10.10;;;8.00;;
19414;SDS011;9843;48.882;12.592;2023-08-31T05:01:34;8.47;;;7.67;;
19414;SDS011;9843;48.882;12.592;2023-08-31T05:04:02;8.73;;;7.93;;
19414;SDS011;9843;48.882;12.592;2023-08-31T05:06:29;27.70;;;8.23;;
19414;SDS011;9843;48.882;12.592;2023-08-31T05:08:57;7.30;;;6.67;;
19414;SDS011;9843;48.882;12.592;2023-08-31T05:11:24;7.80;;;7.00;;
19414;SDS011;9843;48.882;12.592;2023-08-31T05:13:51;8.03;;;7.43;;
19414;SDS011;9843;48.882;12.592;2023-08-31T05:16:18;8.67;;;7.70;;
19414;SDS011;9843;48.882;12.592;2023-08-31T05:18:45;8.40;;;7.73;;
19414;SDS011;9843;48.882;12.592;2023-08-31T05:21:13;7.60;;;6.87;;
19414;SDS011;9843;48.882;12.592;2023-08-31T05:23:40;7.30;;;6.60;;
19414;SDS011;9843;48.882;12.592;2023-08-31T05:26:08;9.30;;;7.27;;
19414;SDS011;9843;48.882;12.592;2023-08-31T05:28:36;7.83;;;7.13;;
19414;SDS011;9843;48.882;12.592;2023-08-31T05:31:03;6.57;;;5.97;;
19414;SDS011;9843;48.882;12.592;2023-08-31T05:33:30;6.43;;;5.83;;
19414;SDS011;9843;48.882;12.592;2023-08-31T05:36:00;7.63;;;6.60;;
19414;SDS011;9843;48.882;12.592;2023-08-31T05:38:28;6.70;;;6.13;;
19414;SDS011;9843;48.882;12.592;2023-08-31T05:41:02;6.50;;;6.00;;
19414;SDS011;9843;48.882;12.592;2023-08-31T05:43:32;6.93;;;6.23;;
19414;SDS011;9843;48.882;12.592;2023-08-31T05:45:59;6.93;;;5.50;;
19414;SDS011;9843;48.882;12.592;2023-08-31T05:48:26;6.23;;;5.57;;
19414;SDS011;9843;48.882;12.592;2023-08-31T05:50:53;5.13;;;4.50;;
19414;SDS011;9843;48.882;12.592;2023-08-31T05:53:20;5.40;;;4.97;;
19414;SDS011;9843;48.882;12.592;2023-08-31T05:55:47;5.77;;;5.27;;
19414;SDS011;9843;48.882;12.592;2023-08-31T05:58:15;5.83;;;5.23;;
19414;SDS011;9843;48.882;12.592;2023-08-31T06:00:43;5.83;;;4.73;;
19414;SDS011;9843;48.882;12.592;2023-08-31T06:03:10;4.83;;;4.37;;
19414;SDS011;9843;48.882;12.592;2023-08-31T06:05:37;4.93;;;4.10;;
19414;SDS011;9843;48.882;12.592;2023-08-31T06:08:04;6.20;;;5.40;;
19414;SDS011;9843;48.882;12.592;2023-08-31T06:10:32;6.43;;;4.23;;
19414;SDS011;9843;48.882;12.592;2023-08-31T06:12:59;3.60;;;3.30;;
19414;SDS011;9843;48.882;12.592;2023-08-31T06:15:26;4.57;;;3.37;;
19414;SDS011;9843;48.882;12.592;2023-08-31T06:17:55;4.47;;;3.00;;
19414;SDS011;9843;48.882;12.592;2023-08-31T06:20:22;3.63;;;3.33;;
19414;SDS011;9843;48.882;12.592;2023-08-31T06:22:49;2.70;;;2.50;;
19414;SDS011;9843;48.882;12.592;2023-08-31T06:25:16;3.77;;;3.20;;
19414;SDS011;9843;48.882;12.592;2023-08-31T06:27:43;3.07;;;2.77;;
19414;SDS011;9843;48.882;12.592;2023-08-31T06:30:11;2.93;;;2.70;;
19414;SDS011;9843;48.882;12.592;2023-08-31T06:32:41;4.17;;;3.43;;
19414;SDS011;9843;48.882;12.592;2023-08-31T06:35:09;3.60;;;2.93;;
19414;SDS011;9843;48.882;12.592;2023-08-31T06:37:37;4.53;;;3.20;;
19414;SDS011;9843;48.882;12.592;2023-08-31T06:40:05;3.60;;;3.17;;
19414;SDS011;9843;48.882;12.592;2023-08-31T06:42:33;5.67;;;4.17;;
19414;SDS011;9843;48.882;12.592;2023-08-31T06:45:00;4.07;;;3.63;;
19414;SDS011;9843;48.882;12.592;2023-08-31T06:47:27;3.33;;;3.03;;
19414;SDS011;9843;48.882;12.592;2023-08-31T06:49:54;6.43;;;4.00;;
19414;SDS011;9843;48.882;12.592;2023-08-31T06:52:24;3.83;;;3.50;;
19414;SDS011;9843;48.882;12.592;2023-08-31T06:54:51;4.73;;;3.20;;
19414;SDS011;9843;48.882;12.592;2023-08-31T06:57:20;4.13;;;2.67;;
19414;SDS011;9843;48.882;12.592;2023-08-31T06:59:48;2.67;;;2.47;;
19414;SDS011;9843;48.882;12.592;2023-08-31T07:02:15;4.07;;;2.87;;
19414;SDS011;9843;48.882;12.592;2023-08-31T07:04:44;3.33;;;3.03;;
19414;SDS011;9843;48.882;12.592;2023-08-31T07:07:11;4.07;;;3.13;;
19414;SDS011;9843;48.882;12.592;2023-08-31T07:09:41;7.03;;;2.73;;
19414;SDS011;9843;48.882;12.592;2023-08-31T07:12:08;4.73;;;2.77;;
19414;SDS011;9843;48.882;12.592;2023-08-31T07:14:36;3.43;;;3.10;;
19414;SDS011;9843;48.882;12.592;2023-08-31T07:17:03;5.73;;;4.03;;
19414;SDS011;9843;48.882;12.592;2023-08-31T07:19:30;4.37;;;3.20;;
19414;SDS011;9843;48.882;12.592;2023-08-31T07:21:57;5.53;;;3.53;;
19414;SDS011;9843;48.882;12.592;2023-08-31T07:24:25;4.43;;;2.63;;
19414;SDS011;9843;48.882;12.592;2023-08-31T07:26:53;3.37;;;3.03;;
19414;SDS011;9843;48.882;12.592;2023-08-31T07:29:20;5.20;;;3.17;;
19414;SDS011;9843;48.882;12.592;2023-08-31T07:31:47;6.07;;;4.07;;
19414;SDS011;9843;48.882;12.592;2023-08-31T07:34:14;2.83;;;2.33;;
19414;SDS011;9843;48.882;12.592;2023-08-31T07:36:41;7.60;;;3.50;;
19414;SDS011;9843;48.882;12.592;2023-08-31T07:39:09;5.00;;;2.73;;
19414;SDS011;9843;48.882;12.592;2023-08-31T07:41:36;7.80;;;2.80;;
19414;SDS011;9843;48.882;12.592;2023-08-31T07:44:05;5.13;;;3.70;;
19414;SDS011;9843;48.882;12.592;2023-08-31T07:46:33;4.83;;;3.13;;
19414;SDS011;9843;48.882;12.592;2023-08-31T07:49:00;6.17;;;2.53;;
19414;SDS011;9843;48.882;12.592;2023-08-31T07:51:28;4.40;;;2.43;;
19414;SDS011;9843;48.882;12.592;2023-08-31T07:53:56;5.10;;;2.30;;
19414;SDS011;9843;48.882;12.592;2023-08-31T07:56:23;4.90;;;1.90;;
19414;SDS011;9843;48.882;12.592;2023-08-31T07:58:50;3.43;;;2.40;;
19414;SDS011;9843;48.882;12.592;2023-08-31T08:01:18;4.00;;;2.50;;
19414;SDS011;9843;48.882;12.592;2023-08-31T08:03:45;6.17;;;2.10;;
19414;SDS011;9843;48.882;12.592;2023-08-31T08:06:12;3.70;;;2.20;;
19414;SDS011;9843;48.882;12.592;2023-08-31T08:08:40;2.80;;;1.50;;
19414;SDS011;9843;48.882;12.592;2023-08-31T08:11:07;3.53;;;2.13;;
19414;SDS011;9843;48.882;12.592;2023-08-31T08:13:34;2.72;;;1.33;;
19414;SDS011;9843;48.882;12.592;2023-08-31T08:16:01;3.83;;;2.22;;
19414;SDS011;9843;48.882;12.592;2023-08-31T08:18:30;6.60;;;1.67;;
19414;SDS011;9843;48.882;12.592;2023-08-31T08:20:58;5.13;;;2.03;;
19414;SDS011;9843;48.882;12.592;2023-08-31T08:23:25;3.17;;;1.57;;
19414;SDS011;9843;48.882;12.592;2023-08-31T08:25:52;4.27;;;1.80;;
19414;SDS011;9843;48.882;12.592;2023-08-31T08:28:19;4.10;;;1.60;;
19414;SDS011;9843;48.882;12.592;2023-08-31T08:30:46;6.55;;;1.85;;
19414;SDS011;9843;48.882;12.592;2023-08-31T08:33:13;3.57;;;1.53;;
19414;SDS011;9843;48.882;12.592;2023-08-31T08:35:41;2.77;;;2.23;;
19414;SDS011;9843;48.882;12.592;2023-08-31T08:38:08;2.20;;;1.83;;
19414;SDS011;9843;48.882;12.592;2023-08-31T08:40:35;2.70;;;1.80;;
19414;SDS011;9843;48.882;12.592;2023-08-31T08:43:04;3.03;;;1.93;;
19414;SDS011;9843;48.882;12.592;2023-08-31T08:45:35;3.43;;;1.70;;
19414;SDS011;9843;48.882;12.592;2023-08-31T08:48:04;4.07;;;2.00;;
19414;SDS011;9843;48.882;12.592;2023-08-31T08:50:32;6.77;;;1.97;;
19414;SDS011;9843;48.882;12.592;2023-08-31T08:53:01;3.67;;;2.33;;
19414;SDS011;9843;48.882;12.592;2023-08-31T08:55:28;3.50;;;2.47;;
19414;SDS011;9843;48.882;12.592;2023-08-31T08:57:55;5.90;;;2.33;;
19414;SDS011;9843;48.882;12.592;2023-08-31T09:00:22;2.63;;;1.30;;
19414;SDS011;9843;48.882;12.592;2023-08-31T09:02:49;4.33;;;2.23;;
19414;SDS011;9843;48.882;12.592;2023-08-31T09:05:17;4.63;;;2.03;;
19414;SDS011;9843;48.882;12.592;2023-08-31T09:10:30;4.70;;;1.67;;
19414;SDS011;9843;48.882;12.592;2023-08-31T09:13:00;7.67;;;2.07;;
19414;SDS011;9843;48.882;12.592;2023-08-31T09:15:35;4.33;;;2.40;;
19414;SDS011;9843;48.882;12.592;2023-08-31T09:18:03;6.50;;;1.63;;
19414;SDS011;9843;48.882;12.592;2023-08-31T09:20:30;2.43;;;1.30;;
19414;SDS011;9843;48.882;12.592;2023-08-31T09:22:57;4.97;;;2.03;;
19414;SDS011;9843;48.882;12.592;2023-08-31T09:25:24;4.43;;;1.87;;
19414;SDS011;9843;48.882;12.592;2023-08-31T09:27:53;3.70;;;2.20;;
19414;SDS011;9843;48.882;12.592;2023-08-31T09:30:20;6.17;;;2.13;;
19414;SDS011;9843;48.882;12.592;2023-08-31T09:32:51;4.10;;;1.90;;
19414;SDS011;9843;48.882;12.592;2023-08-31T09:35:19;3.67;;;1.73;;
19414;SDS011;9843;48.882;12.592;2023-08-31T09:37:54;3.23;;;2.93;;
19414;SDS011;9843;48.882;12.592;2023-08-31T09:40:22;3.13;;;1.90;;
19414;SDS011;9843;48.882;12.592;2023-08-31T09:42:49;4.70;;;2.00;;
19414;SDS011;9843;48.882;12.592;2023-08-31T09:45:18;3.53;;;1.93;;
19414;SDS011;9843;48.882;12.592;2023-08-31T09:47:52;5.27;;;2.07;;
19414;SDS011;9843;48.882;12.592;2023-08-31T09:50:19;2.80;;;2.27;;
19414;SDS011;9843;48.882;12.592;2023-08-31T09:52:47;2.47;;;1.60;;
19414;SDS011;9843;48.882;12.592;2023-08-31T09:55:15;6.83;;;2.53;;
19414;SDS011;9843;48.882;12.592;2023-08-31T09:57:44;2.80;;;1.93;;
19414;SDS011;9843;48.882;12.592;2023-08-31T10:00:12;4.93;;;3.20;;
19414;SDS011;9843;48.882;12.592;2023-08-31T10:02:42;6.47;;;2.17;;
19414;SDS011;9843;48.882;12.592;2023-08-31T10:05:09;8.97;;;3.07;;
19414;SDS011;9843;48.882;12.592;2023-08-31T10:07:36;2.70;;;1.50;;
19414;SDS011;9843;48.882;12.592;2023-08-31T10:10:04;3.47;;;1.77;;
19414;SDS011;9843;48.882;12.592;2023-08-31T10:12:31;2.93;;;1.83;;
19414;SDS011;9843;48.882;12.592;2023-08-31T10:14:59;8.23;;;3.57;;
19414;SDS011;9843;48.882;12.592;2023-08-31T10:17:26;2.70;;;2.30;;
19414;SDS011;9843;48.882;12.592;2023-08-31T10:19:55;3.93;;;2.23;;
19414;SDS011;9843;48.882;12.592;2023-08-31T10:22:22;2.70;;;2.00;;
19414;SDS011;9843;48.882;12.592;2023-08-31T10:24:56;1.93;;;1.20;;
19414;SDS011;9843;48.882;12.592;2023-08-31T10:27:24;2.87;;;1.57;;
19414;SDS011;9843;48.882;12.592;2023-08-31T10:29:51;12.20;;;2.33;;
19414;SDS011;9843;48.882;12.592;2023-08-31T10:32:18;4.77;;;1.93;;
19414;SDS011;9843;48.882;12.592;2023-08-31T10:37:30;4.00;;;1.57;;
19414;SDS011;9843;48.882;12.592;2023-08-31T10:40:06;2.45;;;1.48;;
19414;SDS011;9843;48.882;12.592;2023-08-31T10:42:40;3.85;;;1.10;;
19414;SDS011;9843;48.882;12.592;2023-08-31T10:45:08;2.45;;;1.20;;
19414;SDS011;9843;48.882;12.592;2023-08-31T10:47:37;3.65;;;1.23;;
19414;SDS011;9843;48.882;12.592;2023-08-31T10:50:18;3.15;;;1.80;;
19414;SDS011;9843;48.882;12.592;2023-08-31T10:52:47;6.78;;;2.08;;
19414;SDS011;9843;48.882;12.592;2023-08-31T10:55:15;3.30;;;1.25;;
19414;SDS011;9843;48.882;12.592;2023-08-31T10:57:42;8.73;;;1.75;;
19414;SDS011;9843;48.882;12.592;2023-08-31T11:00:10;7.78;;;2.60;;
19414;SDS011;9843;48.882;12.592;2023-08-31T11:02:41;1.70;;;1.13;;
19414;SDS011;9843;48.882;12.592;2023-08-31T11:05:09;7.63;;;1.40;;
19414;SDS011;9843;48.882;12.592;2023-08-31T11:07:37;4.60;;;1.70;;
19414;SDS011;9843;48.882;12.592;2023-08-31T11:10:11;4.47;;;1.42;;
19414;SDS011;9843;48.882;12.592;2023-08-31T11:12:38;1.70;;;1.35;;
19414;SDS011;9843;48.882;12.592;2023-08-31T11:15:05;3.58;;;1.00;;
19414;SDS011;9843;48.882;12.592;2023-08-31T11:17:33;4.83;;;1.40;;
19414;SDS011;9843;48.882;12.592;2023-08-31T11:20:00;2.60;;;1.20;;
19414;SDS011;9843;48.882;12.592;2023-08-31T11:22:30;2.10;;;1.20;;
19414;SDS011;9843;48.882;12.592;2023-08-31T11:24:58;3.77;;;1.20;;
19414;SDS011;9843;48.882;12.592;2023-08-31T11:27:27;7.53;;;2.87;;
19414;SDS011;9843;48.882;12.592;2023-08-31T11:29:54;4.33;;;1.40;;
19414;SDS011;9843;48.882;12.592;2023-08-31T11:32:22;1.80;;;1.27;;
19414;SDS011;9843;48.882;12.592;2023-08-31T11:34:50;4.13;;;1.23;;
19414;SDS011;9843;48.882;12.592;2023-08-31T11:37:17;2.07;;;1.30;;
19414;SDS011;9843;48.882;12.592;2023-08-31T11:39:48;3.47;;;1.53;;
19414;SDS011;9843;48.882;12.592;2023-08-31T11:42:16;2.03;;;1.13;;
19414;SDS011;9843;48.882;12.592;2023-08-31T11:44:46;7.63;;;1.00;;
19414;SDS011;9843;48.882;12.592;2023-08-31T11:47:13;7.38;;;1.67;;
19414;SDS011;9843;48.882;12.592;2023-08-31T11:49:41;3.10;;;1.50;;
19414;SDS011;9843;48.882;12.592;2023-08-31T11:52:09;5.75;;;1.83;;
19414;SDS011;9843;48.882;12.592;2023-08-31T11:54:37;1.88;;;1.10;;
19414;SDS011;9843;48.882;12.592;2023-08-31T11:57:06;1.98;;;1.33;;
19414;SDS011;9843;48.882;12.592;2023-08-31T11:59:34;3.50;;;1.35;;
19414;SDS011;9843;48.882;12.592;2023-08-31T12:02:04;4.25;;;1.40;;
19414;SDS011;9843;48.882;12.592;2023-08-31T12:04:31;3.30;;;1.43;;
19414;SDS011;9843;48.882;12.592;2023-08-31T12:07:00;2.27;;;1.57;;
19414;SDS011;9843;48.882;12.592;2023-08-31T12:09:28;3.23;;;1.60;;
19414;SDS011;9843;48.882;12.592;2023-08-31T12:11:56;3.40;;;1.97;;
19414;SDS011;9843;48.882;12.592;2023-08-31T12:14:25;3.83;;;1.43;;
19414;SDS011;9843;48.882;12.592;2023-08-31T12:17:00;2.27;;;1.30;;
19414;SDS011;9843;48.882;12.592;2023-08-31T12:19:29;3.93;;;1.20;;
19414;SDS011;9843;48.882;12.592;2023-08-31T12:21:56;6.17;;;1.40;;
19414;SDS011;9843;48.882;12.592;2023-08-31T12:24:24;1.77;;;1.43;;
19414;SDS011;9843;48.882;12.592;2023-08-31T12:26:51;4.87;;;1.37;;
19414;SDS011;9843;48.882;12.592;2023-08-31T12:29:20;4.63;;;1.53;;
19414;SDS011;9843;48.882;12.592;2023-08-31T12:31:47;3.03;;;1.33;;
19414;SDS011;9843;48.882;12.592;2023-08-31T12:34:14;2.97;;;1.85;;
19414;SDS011;9843;48.882;12.592;2023-08-31T12:36:43;2.00;;;1.48;;
19414;SDS011;9843;48.882;12.592;2023-08-31T12:39:10;6.60;;;1.75;;
19414;SDS011;9843;48.882;12.592;2023-08-31T12:41:37;1.55;;;1.02;;
19414;SDS011;9843;48.882;12.592;2023-08-31T12:44:04;4.50;;;1.40;;
19414;SDS011;9843;48.882;12.592;2023-08-31T12:46:31;2.22;;;1.30;;
19414;SDS011;9843;48.882;12.592;2023-08-31T12:48:59;3.65;;;1.38;;
19414;SDS011;9843;48.882;12.592;2023-08-31T12:51:27;3.78;;;1.60;;
19414;SDS011;9843;48.882;12.592;2023-08-31T12:53:56;4.37;;;1.40;;
19414;SDS011;9843;48.882;12.592;2023-08-31T12:56:23;2.40;;;1.30;;
19414;SDS011;9843;48.882;12.592;2023-08-31T12:58:50;2.27;;;1.40;;
19414;SDS011;9843;48.882;12.592;2023-08-31T13:01:18;3.77;;;1.40;;
19414;SDS011;9843;48.882;12.592;2023-08-31T13:03:45;2.30;;;1.57;;
19414;SDS011;9843;48.882;12.592;2023-08-31T13:06:12;3.03;;;1.37;;
19414;SDS011;9843;48.882;12.592;2023-08-31T13:08:41;4.33;;;1.67;;
19414;SDS011;9843;48.882;12.592;2023-08-31T13:11:10;2.83;;;2.00;;
19414;SDS011;9843;48.882;12.592;2023-08-31T13:13:38;3.47;;;1.80;;
19414;SDS011;9843;48.882;12.592;2023-08-31T13:16:05;1.80;;;1.47;;
19414;SDS011;9843;48.882;12.592;2023-08-31T13:18:32;2.33;;;1.53;;
19414;SDS011;9843;48.882;12.592;2023-08-31T13:20:59;2.13;;;1.20;;
19414;SDS011;9843;48.882;12.592;2023-08-31T13:23:28;3.50;;;2.00;;
19414;SDS011;9843;48.882;12.592;2023-08-31T13:25:55;5.03;;;1.60;;
19414;SDS011;9843;48.882;12.592;2023-08-31T13:28:23;2.10;;;1.33;;
19414;SDS011;9843;48.882;12.592;2023-08-31T13:30:54;2.97;;;1.70;;
19414;SDS011;9843;48.882;12.592;2023-08-31T13:33:22;3.63;;;1.87;;
19414;SDS011;9843;48.882;12.592;2023-08-31T13:35:49;7.87;;;1.73;;
19414;SDS011;9843;48.882;12.592;2023-08-31T13:38:16;4.70;;;2.10;;
19414;SDS011;9843;48.882;12.592;2023-08-31T13:40:43;3.17;;;1.70;;
19414;SDS011;9843;48.882;12.592;2023-08-31T13:43:10;2.73;;;1.10;;
19414;SDS011;9843;48.882;12.592;2023-08-31T13:45:39;1.93;;;1.23;;
19414;SDS011;9843;48.882;12.592;2023-08-31T13:48:06;1.50;;;1.10;;
19414;SDS011;9843;48.882;12.592;2023-08-31T13:50:33;3.97;;;2.33;;
19414;SDS011;9843;48.882;12.592;2023-08-31T13:53:00;3.10;;;2.80;;
19414;SDS011;9843;48.882;12.592;2023-08-31T13:55:27;2.07;;;1.30;;
19414;SDS011;9843;48.882;12.592;2023-08-31T13:57:57;6.87;;;1.83;;
19414;SDS011;9843;48.882;12.592;2023-08-31T14:00:24;2.50;;;1.57;;
19414;SDS011;9843;48.882;12.592;2023-08-31T14:02:52;5.77;;;1.47;;
19414;SDS011;9843;48.882;12.592;2023-08-31T14:05:19;2.77;;;1.43;;
19414;SDS011;9843;48.882;12.592;2023-08-31T14:07:46;6.80;;;1.97;;
19414;SDS011;9843;48.882;12.592;2023-08-31T14:10:14;3.57;;;2.47;;
19414;SDS011;9843;48.882;12.592;2023-08-31T14:12:41;4.53;;;1.30;;
19414;SDS011;9843;48.882;12.592;2023-08-31T14:15:08;3.53;;;1.30;;
19414;SDS011;9843;48.882;12.592;2023-08-31T14:17:34;7.77;;;2.90;;
19414;SDS011;9843;48.882;12.592;2023-08-31T14:20:03;3.43;;;1.40;;
19414;SDS011;9843;48.882;12.592;2023-08-31T14:22:32;4.77;;;2.43;;
19414;SDS011;9843;48.882;12.592;2023-08-31T14:24:59;2.50;;;1.77;;
19414;SDS011;9843;48.882;12.592;2023-08-31T14:27:26;3.93;;;1.97;;
19414;SDS011;9843;48.882;12.592;2023-08-31T14:29:55;4.13;;;1.70;;
19414;SDS011;9843;48.882;12.592;2023-08-31T14:32:22;9.50;;;1.97;;
19414;SDS011;9843;48.882;12.592;2023-08-31T14:34:49;4.90;;;1.93;;
19414;SDS011;9843;48.882;12.592;2023-08-31T14:37:17;5.07;;;1.80;;
19414;SDS011;9843;48.882;12.592;2023-08-31T14:39:44;4.47;;;2.43;;
19414;SDS011;9843;48.882;12.592;2023-08-31T14:42:11;2.07;;;1.60;;
19414;SDS011;9843;48.882;12.592;2023-08-31T14:44:40;2.87;;;2.00;;
19414;SDS011;9843;48.882;12.592;2023-08-31T14:47:09;2.50;;;1.70;;
19414;SDS011;9843;48.882;12.592;2023-08-31T14:49:38;4.83;;;2.23;;
19414;SDS011;9843;48.882;12.592;2023-08-31T14:52:05;5.70;;;2.87;;
19414;SDS011;9843;48.882;12.592;2023-08-31T14:54:34;3.47;;;1.90;;